<?xml version="1.0" encoding="UTF-8" standalone="no" ?>
<gpx xmlns="http://www.topografix.com/GPX/1/1" xmlns:xsi="http://www.w3.org/2001/XMLSchema-instance" xsi:schemaLocation="http://www.topografix.com/GPX/1/1 http://www.topografix.com/GPX/1/1/gpx.xsd" version="1.1" creator="VisuGPX - https://www.visugpx.com">
  <metadata>
    <name>Ogeu de beaux singles</name>
    <desc><![CDATA[regroupement de différentes traces, sympa par temps plutôt assez sec]]></desc>
  </metadata>
  <trk>
    <name><![CDATA[Ogeu de beaux singles_3]]></name>
    <trkseg>
      <trkpt lat="43.1109" lon="-0.51619">
        <ele>536.55</ele>
        <time>2021-08-29T10:45:32Z</time>
      </trkpt>
      <trkpt lat="43.1109" lon="-0.51618">
        <ele>536.55</ele>
        <time>2021-08-29T10:45:33Z</time>
      </trkpt>
      <trkpt lat="43.11075" lon="-0.516">
        <ele>539.92</ele>
        <time>2021-08-29T10:45:44Z</time>
      </trkpt>
      <trkpt lat="43.11059" lon="-0.51584">
        <ele>542.8</ele>
        <time>2021-08-29T10:45:56Z</time>
      </trkpt>
      <trkpt lat="43.11047" lon="-0.51571">
        <ele>546.17</ele>
        <time>2021-08-29T10:46:09Z</time>
      </trkpt>
      <trkpt lat="43.11046" lon="-0.5157">
        <ele>546.17</ele>
        <time>2021-08-29T10:46:10Z</time>
      </trkpt>
      <trkpt lat="43.1104" lon="-0.51544">
        <ele>549.05</ele>
        <time>2021-08-29T10:46:25Z</time>
      </trkpt>
      <trkpt lat="43.11039" lon="-0.5154">
        <ele>549.53</ele>
        <time>2021-08-29T10:46:28Z</time>
      </trkpt>
      <trkpt lat="43.11046" lon="-0.51514">
        <ele>551.93</ele>
        <time>2021-08-29T10:46:42Z</time>
      </trkpt>
      <trkpt lat="43.1105" lon="-0.51502">
        <ele>550.49</ele>
        <time>2021-08-29T10:46:49Z</time>
      </trkpt>
      <trkpt lat="43.11053" lon="-0.51494">
        <ele>550.49</ele>
        <time>2021-08-29T10:47:02Z</time>
      </trkpt>
      <trkpt lat="43.11053" lon="-0.51494">
        <ele>550.49</ele>
        <time>2021-08-29T10:47:04Z</time>
      </trkpt>
      <trkpt lat="43.11059" lon="-0.51464">
        <ele>550.49</ele>
        <time>2021-08-29T10:47:15Z</time>
      </trkpt>
      <trkpt lat="43.11069" lon="-0.51422">
        <ele>547.13</ele>
        <time>2021-08-29T10:47:21Z</time>
      </trkpt>
      <trkpt lat="43.11072" lon="-0.51407">
        <ele>546.65</ele>
        <time>2021-08-29T10:47:23Z</time>
      </trkpt>
      <trkpt lat="43.11075" lon="-0.51394">
        <ele>545.2</ele>
        <time>2021-08-29T10:47:25Z</time>
      </trkpt>
      <trkpt lat="43.11084" lon="-0.51368">
        <ele>543.28</ele>
        <time>2021-08-29T10:47:29Z</time>
      </trkpt>
      <trkpt lat="43.11096" lon="-0.5134">
        <ele>539.92</ele>
        <time>2021-08-29T10:47:33Z</time>
      </trkpt>
      <trkpt lat="43.11114" lon="-0.51308">
        <ele>535.59</ele>
        <time>2021-08-29T10:47:40Z</time>
      </trkpt>
      <trkpt lat="43.1113" lon="-0.5128">
        <ele>532.23</ele>
        <time>2021-08-29T10:47:44Z</time>
      </trkpt>
      <trkpt lat="43.11147" lon="-0.51247">
        <ele>529.82</ele>
        <time>2021-08-29T10:47:48Z</time>
      </trkpt>
      <trkpt lat="43.11158" lon="-0.51217">
        <ele>525.98</ele>
        <time>2021-08-29T10:47:52Z</time>
      </trkpt>
      <trkpt lat="43.11171" lon="-0.5118">
        <ele>522.13</ele>
        <time>2021-08-29T10:47:56Z</time>
      </trkpt>
      <trkpt lat="43.11175" lon="-0.51149">
        <ele>518.29</ele>
        <time>2021-08-29T10:48:01Z</time>
      </trkpt>
      <trkpt lat="43.11175" lon="-0.51132">
        <ele>514.44</ele>
        <time>2021-08-29T10:48:03Z</time>
      </trkpt>
      <trkpt lat="43.11176" lon="-0.51115">
        <ele>511.56</ele>
        <time>2021-08-29T10:48:05Z</time>
      </trkpt>
      <trkpt lat="43.11176" lon="-0.51087">
        <ele>507.23</ele>
        <time>2021-08-29T10:48:09Z</time>
      </trkpt>
      <trkpt lat="43.11177" lon="-0.51072">
        <ele>504.35</ele>
        <time>2021-08-29T10:48:11Z</time>
      </trkpt>
      <trkpt lat="43.11178" lon="-0.51059">
        <ele>501.95</ele>
        <time>2021-08-29T10:48:13Z</time>
      </trkpt>
      <trkpt lat="43.11186" lon="-0.51031">
        <ele>497.62</ele>
        <time>2021-08-29T10:48:17Z</time>
      </trkpt>
      <trkpt lat="43.11191" lon="-0.51019">
        <ele>494.74</ele>
        <time>2021-08-29T10:48:19Z</time>
      </trkpt>
      <trkpt lat="43.112" lon="-0.50991">
        <ele>489.93</ele>
        <time>2021-08-29T10:48:23Z</time>
      </trkpt>
      <trkpt lat="43.11205" lon="-0.50976">
        <ele>487.53</ele>
        <time>2021-08-29T10:48:25Z</time>
      </trkpt>
      <trkpt lat="43.11217" lon="-0.50951">
        <ele>482.72</ele>
        <time>2021-08-29T10:48:29Z</time>
      </trkpt>
      <trkpt lat="43.11222" lon="-0.50939">
        <ele>480.8</ele>
        <time>2021-08-29T10:48:31Z</time>
      </trkpt>
      <trkpt lat="43.11241" lon="-0.50928">
        <ele>476.47</ele>
        <time>2021-08-29T10:48:35Z</time>
      </trkpt>
      <trkpt lat="43.11257" lon="-0.50929">
        <ele>473.59</ele>
        <time>2021-08-29T10:48:38Z</time>
      </trkpt>
      <trkpt lat="43.11283" lon="-0.50926">
        <ele>469.26</ele>
        <time>2021-08-29T10:48:44Z</time>
      </trkpt>
      <trkpt lat="43.11294" lon="-0.5093">
        <ele>465.9</ele>
        <time>2021-08-29T10:48:47Z</time>
      </trkpt>
      <trkpt lat="43.11298" lon="-0.5094">
        <ele>464.93</ele>
        <time>2021-08-29T10:48:51Z</time>
      </trkpt>
      <trkpt lat="43.11307" lon="-0.50984">
        <ele>462.53</ele>
        <time>2021-08-29T10:49:03Z</time>
      </trkpt>
      <trkpt lat="43.113" lon="-0.51005">
        <ele>461.57</ele>
        <time>2021-08-29T10:49:07Z</time>
      </trkpt>
      <trkpt lat="43.11309" lon="-0.51025">
        <ele>458.21</ele>
        <time>2021-08-29T10:49:15Z</time>
      </trkpt>
      <trkpt lat="43.11322" lon="-0.51021">
        <ele>455.32</ele>
        <time>2021-08-29T10:49:18Z</time>
      </trkpt>
      <trkpt lat="43.11338" lon="-0.51014">
        <ele>451</ele>
        <time>2021-08-29T10:49:22Z</time>
      </trkpt>
      <trkpt lat="43.11345" lon="-0.51011">
        <ele>449.07</ele>
        <time>2021-08-29T10:49:24Z</time>
      </trkpt>
      <trkpt lat="43.11351" lon="-0.5101">
        <ele>447.15</ele>
        <time>2021-08-29T10:49:26Z</time>
      </trkpt>
      <trkpt lat="43.11368" lon="-0.51022">
        <ele>444.27</ele>
        <time>2021-08-29T10:49:32Z</time>
      </trkpt>
      <trkpt lat="43.11373" lon="-0.51024">
        <ele>444.27</ele>
        <time>2021-08-29T10:49:35Z</time>
      </trkpt>
      <trkpt lat="43.11397" lon="-0.5101">
        <ele>441.38</ele>
        <time>2021-08-29T10:49:46Z</time>
      </trkpt>
      <trkpt lat="43.11412" lon="-0.50996">
        <ele>438.98</ele>
        <time>2021-08-29T10:49:53Z</time>
      </trkpt>
      <trkpt lat="43.11423" lon="-0.50995">
        <ele>437.54</ele>
        <time>2021-08-29T10:49:55Z</time>
      </trkpt>
      <trkpt lat="43.11446" lon="-0.50983">
        <ele>432.73</ele>
        <time>2021-08-29T10:50:00Z</time>
      </trkpt>
      <trkpt lat="43.11455" lon="-0.50973">
        <ele>429.85</ele>
        <time>2021-08-29T10:50:03Z</time>
      </trkpt>
      <trkpt lat="43.11472" lon="-0.50956">
        <ele>424.56</ele>
        <time>2021-08-29T10:50:07Z</time>
      </trkpt>
      <trkpt lat="43.11489" lon="-0.50943">
        <ele>420.23</ele>
        <time>2021-08-29T10:50:11Z</time>
      </trkpt>
      <trkpt lat="43.11506" lon="-0.50932">
        <ele>416.39</ele>
        <time>2021-08-29T10:50:14Z</time>
      </trkpt>
      <trkpt lat="43.11525" lon="-0.50921">
        <ele>413.02</ele>
        <time>2021-08-29T10:50:17Z</time>
      </trkpt>
      <trkpt lat="43.11536" lon="-0.50921">
        <ele>411.58</ele>
        <time>2021-08-29T10:50:19Z</time>
      </trkpt>
      <trkpt lat="43.11582" lon="-0.50927">
        <ele>410.62</ele>
        <time>2021-08-29T10:50:27Z</time>
      </trkpt>
      <trkpt lat="43.11588" lon="-0.50939">
        <ele>411.1</ele>
        <time>2021-08-29T10:50:29Z</time>
      </trkpt>
      <trkpt lat="43.11602" lon="-0.5096">
        <ele>408.22</ele>
        <time>2021-08-29T10:50:35Z</time>
      </trkpt>
      <trkpt lat="43.11626" lon="-0.50944">
        <ele>404.85</ele>
        <time>2021-08-29T10:50:41Z</time>
      </trkpt>
      <trkpt lat="43.11643" lon="-0.50936">
        <ele>403.41</ele>
        <time>2021-08-29T10:50:44Z</time>
      </trkpt>
      <trkpt lat="43.11678" lon="-0.50918">
        <ele>399.57</ele>
        <time>2021-08-29T10:50:50Z</time>
      </trkpt>
      <trkpt lat="43.11698" lon="-0.50901">
        <ele>398.12</ele>
        <time>2021-08-29T10:50:53Z</time>
      </trkpt>
      <trkpt lat="43.11709" lon="-0.50895">
        <ele>397.16</ele>
        <time>2021-08-29T10:50:55Z</time>
      </trkpt>
      <trkpt lat="43.11749" lon="-0.50877">
        <ele>393.32</ele>
        <time>2021-08-29T10:51:00Z</time>
      </trkpt>
      <trkpt lat="43.11765" lon="-0.50869">
        <ele>392.36</ele>
        <time>2021-08-29T10:51:02Z</time>
      </trkpt>
      <trkpt lat="43.11805" lon="-0.50844">
        <ele>388.51</ele>
        <time>2021-08-29T10:51:07Z</time>
      </trkpt>
      <trkpt lat="43.11813" lon="-0.50839">
        <ele>387.55</ele>
        <time>2021-08-29T10:51:08Z</time>
      </trkpt>
      <trkpt lat="43.11828" lon="-0.50828">
        <ele>386.11</ele>
        <time>2021-08-29T10:51:10Z</time>
      </trkpt>
      <trkpt lat="43.11838" lon="-0.50822">
        <ele>384.18</ele>
        <time>2021-08-29T10:51:12Z</time>
      </trkpt>
      <trkpt lat="43.11858" lon="-0.50813">
        <ele>380.34</ele>
        <time>2021-08-29T10:51:16Z</time>
      </trkpt>
      <trkpt lat="43.11877" lon="-0.50803">
        <ele>376.01</ele>
        <time>2021-08-29T10:51:19Z</time>
      </trkpt>
      <trkpt lat="43.11893" lon="-0.50793">
        <ele>371.69</ele>
        <time>2021-08-29T10:51:22Z</time>
      </trkpt>
      <trkpt lat="43.11897" lon="-0.5079">
        <ele>370.73</ele>
        <time>2021-08-29T10:51:23Z</time>
      </trkpt>
      <trkpt lat="43.11912" lon="-0.50769">
        <ele>366.88</ele>
        <time>2021-08-29T10:51:27Z</time>
      </trkpt>
      <trkpt lat="43.11926" lon="-0.50753">
        <ele>364.96</ele>
        <time>2021-08-29T10:51:30Z</time>
      </trkpt>
      <trkpt lat="43.11936" lon="-0.50746">
        <ele>364.48</ele>
        <time>2021-08-29T10:51:32Z</time>
      </trkpt>
      <trkpt lat="43.11971" lon="-0.50709">
        <ele>366.4</ele>
        <time>2021-08-29T10:51:43Z</time>
      </trkpt>
      <trkpt lat="43.11993" lon="-0.50687">
        <ele>363.04</ele>
        <time>2021-08-29T10:51:50Z</time>
      </trkpt>
      <trkpt lat="43.1201" lon="-0.50661">
        <ele>359.19</ele>
        <time>2021-08-29T10:51:54Z</time>
      </trkpt>
      <trkpt lat="43.12015" lon="-0.50648">
        <ele>358.71</ele>
        <time>2021-08-29T10:51:56Z</time>
      </trkpt>
      <trkpt lat="43.12029" lon="-0.50629">
        <ele>358.71</ele>
        <time>2021-08-29T10:52:01Z</time>
      </trkpt>
      <trkpt lat="43.12035" lon="-0.50621">
        <ele>360.15</ele>
        <time>2021-08-29T10:52:04Z</time>
      </trkpt>
      <trkpt lat="43.12055" lon="-0.50597">
        <ele>360.63</ele>
        <time>2021-08-29T10:52:15Z</time>
      </trkpt>
      <trkpt lat="43.12062" lon="-0.50587">
        <ele>359.19</ele>
        <time>2021-08-29T10:52:17Z</time>
      </trkpt>
      <trkpt lat="43.12082" lon="-0.50568">
        <ele>356.31</ele>
        <time>2021-08-29T10:52:21Z</time>
      </trkpt>
      <trkpt lat="43.12107" lon="-0.50545">
        <ele>354.38</ele>
        <time>2021-08-29T10:52:25Z</time>
      </trkpt>
      <trkpt lat="43.12113" lon="-0.50539">
        <ele>354.38</ele>
        <time>2021-08-29T10:52:26Z</time>
      </trkpt>
      <trkpt lat="43.1214" lon="-0.50511">
        <ele>351.98</ele>
        <time>2021-08-29T10:52:31Z</time>
      </trkpt>
      <trkpt lat="43.12172" lon="-0.5047">
        <ele>347.65</ele>
        <time>2021-08-29T10:52:37Z</time>
      </trkpt>
      <trkpt lat="43.12183" lon="-0.50437">
        <ele>343.81</ele>
        <time>2021-08-29T10:52:41Z</time>
      </trkpt>
      <trkpt lat="43.12186" lon="-0.5042">
        <ele>342.37</ele>
        <time>2021-08-29T10:52:43Z</time>
      </trkpt>
      <trkpt lat="43.12189" lon="-0.50405">
        <ele>340.92</ele>
        <time>2021-08-29T10:52:44Z</time>
      </trkpt>
      <trkpt lat="43.12192" lon="-0.50387">
        <ele>339.48</ele>
        <time>2021-08-29T10:52:46Z</time>
      </trkpt>
      <trkpt lat="43.12198" lon="-0.50354">
        <ele>335.64</ele>
        <time>2021-08-29T10:52:51Z</time>
      </trkpt>
      <trkpt lat="43.12201" lon="-0.50332">
        <ele>331.79</ele>
        <time>2021-08-29T10:52:55Z</time>
      </trkpt>
      <trkpt lat="43.12202" lon="-0.50326">
        <ele>331.31</ele>
        <time>2021-08-29T10:52:57Z</time>
      </trkpt>
      <trkpt lat="43.12204" lon="-0.50316">
        <ele>330.83</ele>
        <time>2021-08-29T10:53:00Z</time>
      </trkpt>
      <trkpt lat="43.12206" lon="-0.50315">
        <ele>330.83</ele>
        <time>2021-08-29T10:53:01Z</time>
      </trkpt>
      <trkpt lat="43.12208" lon="-0.50313">
        <ele>330.35</ele>
        <time>2021-08-29T10:53:02Z</time>
      </trkpt>
    </trkseg>
  </trk>
</gpx>